Terminal Aerodrome Forecast
Issued by NWS Greer, SC

Home | Current Version | Previous Version | Text Only | Print | Product List | Glossary On
Versions: 1 2 3 4 5 6 7 8 9 10 11 12 13 14 15 16 17 18 19 20 21 22 23 24 25 26 27 28 29 30 31 32 33 34 35 36 37 38 39 40 41 42
000
FTUS42 KGSP 281159 CCA
TAFAVL
TAF COR
KAVL 281159Z 2812/2912 00000KT P6SM FEW005
     FM281400 34003KT P6SM VCSH BKN035
     FM282100 17005KT P6SM VCSH BKN040 PROB30 2821/2901 4SM TSRA
      BKN030CB
     FM290600 00000KT P6SM SCT024
     FM290800 00000KT 4SM BR BKN018=

USA.gov is the U.S. government's official web portal to all federal, state and local government web resources and services.